Time;durP1;ratioP1;P1;durP2;ratioP2;P2;SDS_P1;SDS_P2;PMS_P1;PMS_P2;Temp;Humidity;BMP_temperature;BMP_pressure;BME280_temperature;BME280_humidity;BME280_pressure;Samples;Min_cycle;Max_cycle;Signal;HPM_P1;HPM_P2
2024/03/21 00:00:09;;;;;;;3.70;3.17;;;12.60;99.90;;;;;;5005379;28;20080;-71
2024/03/21 00:02:39;;;;;;;3.67;3.28;;;12.60;99.90;;;;;;5005057;28;20064;-71
2024/03/21 00:05:06;;;;;;;4.03;3.25;;;12.60;99.90;;;;;;5004520;28;20053;-71
2024/03/21 00:07:34;;;;;;;3.40;2.90;;;12.50;99.90;;;;;;5004772;28;20137;-71
2024/03/21 00:10:00;;;;;;;2.95;2.40;;;12.50;99.90;;;;;;5002823;28;20611;-71
2024/03/21 00:12:26;;;;;;;2.17;1.70;;;12.40;99.90;;;;;;5005034;28;20058;-71
2024/03/21 00:14:52;;;;;;;3.55;2.67;;;12.40;99.90;;;;;;5004901;28;20145;-71
2024/03/21 00:17:18;;;;;;;2.15;1.50;;;12.30;99.90;;;;;;5005175;28;20523;-71
2024/03/21 00:19:44;;;;;;;1.98;1.52;;;12.20;99.90;;;;;;5004907;28;20061;-71
2024/03/21 00:22:10;;;;;;;1.88;1.40;;;12.20;99.90;;;;;;5004212;28;20112;-71
2024/03/21 00:24:38;;;;;;;1.77;1.15;;;12.10;99.90;;;;;;5003823;28;20053;-71
2024/03/21 00:27:04;;;;;;;2.00;1.30;;;12.10;99.90;;;;;;5004354;28;20050;-71
2024/03/21 00:29:31;;;;;;;2.60;2.20;;;12.00;99.90;;;;;;5004989;28;20062;-71
2024/03/21 00:31:57;;;;;;;2.00;1.42;;;11.90;99.90;;;;;;5004544;28;20050;-71
2024/03/21 00:34:23;;;;;;;2.35;1.77;;;11.80;99.90;;;;;;5004558;28;20102;-71
2024/03/21 00:36:49;;;;;;;1.67;1.30;;;11.80;99.90;;;;;;5004056;28;20050;-71
2024/03/21 00:39:23;;;;;;;1.88;1.45;;;11.70;99.90;;;;;;5003706;28;20057;-71
2024/03/21 00:41:49;;;;;;;2.33;1.60;;;11.70;99.90;;;;;;5004764;28;20050;-71
2024/03/21 00:44:16;;;;;;;1.10;1.00;;;11.70;99.90;;;;;;5004476;28;20100;-71
2024/03/21 00:46:41;;;;;;;1.00;0.80;;;11.70;99.90;;;;;;5004331;28;20050;-71
2024/03/21 00:49:08;;;;;;;1.00;0.75;;;11.70;99.90;;;;;;5004749;28;20064;-71
2024/03/21 00:51:34;;;;;;;1.38;1.05;;;11.70;99.90;;;;;;5003940;28;20050;-71
2024/03/21 00:54:01;;;;;;;1.58;1.00;;;11.60;99.90;;;;;;5003592;28;20537;-71
2024/03/21 00:56:26;;;;;;;1.17;0.88;;;11.60;99.90;;;;;;5003746;28;20065;-71
2024/03/21 00:58:57;;;;;;;0.73;0.63;;;11.60;99.90;;;;;;5004880;28;20050;-71
2024/03/21 01:01:25;;;;;;;0.70;0.60;;;11.60;99.90;;;;;;5003505;28;20054;-71
2024/03/21 01:03:51;;;;;;;0.85;0.65;;;11.70;99.90;;;;;;5000739;28;20045;-71
2024/03/21 01:06:16;;;;;;;1.00;0.80;;;11.70;99.90;;;;;;4989845;28;20181;-71
2024/03/21 01:08:42;;;;;;;1.00;0.77;;;11.70;99.90;;;;;;4983738;28;20498;-71
2024/03/21 01:11:09;;;;;;;1.15;0.60;;;11.70;99.90;;;;;;4984412;28;20096;-71
2024/03/21 01:13:35;;;;;;;0.82;0.70;;;11.70;99.90;;;;;;4968544;28;20054;-71
2024/03/21 01:16:01;;;;;;;1.00;0.80;;;11.70;99.90;;;;;;4984123;28;20540;-71
2024/03/21 01:18:35;;;;;;;1.00;0.80;;;11.70;99.90;;;;;;4984216;28;20058;-71
2024/03/21 01:21:01;;;;;;;;;;;11.70;99.90;;;;;;4984768;28;20058;-71
2024/03/21 01:23:27;;;;;;;0.95;0.80;;;11.70;99.90;;;;;;4983287;28;19926;-71
2024/03/21 01:25:54;;;;;;;0.80;0.60;;;11.70;99.90;;;;;;4983706;28;20049;-71
2024/03/21 01:28:20;;;;;;;0.73;0.65;;;11.60;99.90;;;;;;4984073;28;20050;-71
2024/03/21 01:30:46;;;;;;;1.27;0.95;;;11.60;99.90;;;;;;4951864;28;20140;-71
2024/03/21 01:33:11;;;;;;;1.10;0.90;;;11.50;99.90;;;;;;4983798;28;20121;-71
2024/03/21 01:35:37;;;;;;;1.27;0.95;;;11.40;99.90;;;;;;4984045;28;20077;-71
2024/03/21 01:38:04;;;;;;;1.75;0.70;;;11.40;99.90;;;;;;4967132;28;20065;-71
2024/03/21 01:40:31;;;;;;;0.77;0.70;;;11.30;99.90;;;;;;4983470;28;20050;-71
2024/03/21 01:42:57;;;;;;;1.08;0.70;;;11.20;99.90;;;;;;4952591;28;20058;-71
2024/03/21 01:45:23;;;;;;;0.47;0.32;;;11.20;99.90;;;;;;4969491;28;20492;-71
2024/03/21 01:47:49;;;;;;;0.52;0.52;;;11.10;99.90;;;;;;4986885;28;20050;-71
2024/03/21 01:50:14;;;;;;;0.57;0.40;;;11.10;99.90;;;;;;5003860;28;20054;-71
2024/03/21 01:52:41;;;;;;;0.60;0.40;;;11.10;99.90;;;;;;5002467;28;20112;-71
2024/03/21 01:55:08;;;;;;;0.40;0.40;;;10.90;99.90;;;;;;4986802;28;20060;-71
2024/03/21 01:57:37;;;;;;;0.32;0.32;;;10.90;99.90;;;;;;5003718;28;20058;-71
2024/03/21 02:00:03;;;;;;;0.45;0.25;;;10.90;99.90;;;;;;5003785;28;20053;-71
2024/03/21 02:02:29;;;;;;;0.22;0.22;;;10.90;99.90;;;;;;5003750;28;20424;-71
2024/03/21 02:04:56;;;;;;;0.40;0.30;;;10.90;99.90;;;;;;5003683;28;20045;-71
2024/03/21 02:07:22;;;;;;;0.50;0.40;;;11.00;99.90;;;;;;5002851;28;20058;-71
2024/03/21 02:09:49;;;;;;;0.35;0.30;;;11.00;99.90;;;;;;5002369;28;20046;-71
2024/03/21 02:12:46;;;;;;;0.30;0.30;;;11.10;99.90;;;;;;5003768;28;20069;-71
2024/03/21 02:15:12;;;;;;;0.47;0.40;;;11.20;99.90;;;;;;5003632;28;20066;-71
2024/03/21 02:17:38;;;;;;;0.30;0.30;;;11.20;99.90;;;;;;5002655;28;20054;-71
2024/03/21 02:20:07;;;;;;;0.35;0.35;;;11.20;99.90;;;;;;4971412;28;20067;-71
2024/03/21 02:22:36;;;;;;;0.30;0.30;;;11.30;99.90;;;;;;5002565;28;20060;-71
2024/03/21 02:25:06;;;;;;;0.30;0.30;;;11.30;99.90;;;;;;4986430;28;20054;-71
2024/03/21 02:27:33;;;;;;;0.35;0.35;;;11.30;99.90;;;;;;5002985;28;20057;-71
2024/03/21 02:29:59;;;;;;;0.20;0.20;;;11.30;99.90;;;;;;5002960;28;20076;-71
2024/03/21 02:32:26;;;;;;;0.22;0.22;;;11.20;99.90;;;;;;4991157;28;20055;-70
2024/03/21 02:34:52;;;;;;;0.30;0.30;;;11.20;99.90;;;;;;4996015;28;20053;-71
2024/03/21 02:37:17;;;;;;;0.57;0.55;;;11.20;99.90;;;;;;4987298;28;20058;-71
2024/03/21 02:39:48;;;;;;;0.50;0.50;;;11.20;99.90;;;;;;4988642;28;20667;-71
2024/03/21 02:42:14;;;;;;;0.90;0.70;;;11.20;99.90;;;;;;4990884;28;20058;-71
2024/03/21 02:44:40;;;;;;;0.90;0.80;;;11.10;99.90;;;;;;4990582;28;20050;-71
2024/03/21 02:47:06;;;;;;;0.50;0.50;;;11.10;99.90;;;;;;5005055;28;20053;-71
2024/03/21 02:49:32;;;;;;;0.70;0.55;;;11.10;99.90;;;;;;5009597;28;20053;-71
2024/03/21 02:51:58;;;;;;;0.93;0.75;;;11.00;99.90;;;;;;5008784;28;20058;-70
2024/03/21 02:54:24;;;;;;;0.82;0.70;;;10.90;99.90;;;;;;4987888;28;20701;-71
2024/03/21 02:56:50;;;;;;;1.00;0.70;;;10.90;99.90;;;;;;4979723;28;20054;-71
2024/03/21 02:59:16;;;;;;;0.80;0.70;;;10.90;99.90;;;;;;5008384;28;20270;-71
2024/03/21 03:01:42;;;;;;;0.75;0.70;;;10.80;99.90;;;;;;5008595;28;20136;-71
2024/03/21 03:04:10;;;;;;;1.70;1.10;;;10.70;99.90;;;;;;4990790;28;20553;-71
2024/03/21 03:06:36;;;;;;;1.42;1.13;;;10.60;99.90;;;;;;4988317;28;20701;-71
2024/03/21 03:09:02;;;;;;;2.53;1.20;;;10.50;99.90;;;;;;4988221;28;20073;-71
2024/03/21 03:11:28;;;;;;;1.42;1.17;;;10.50;99.90;;;;;;4988316;28;20494;-71
2024/03/21 03:13:54;;;;;;;2.00;1.48;;;10.40;99.90;;;;;;4995725;28;20058;-71
2024/03/21 03:16:19;;;;;;;2.63;2.10;;;10.30;99.90;;;;;;4988326;28;20054;-71
2024/03/21 03:18:45;;;;;;;2.10;1.70;;;10.20;99.90;;;;;;4988544;28;20142;-71
2024/03/21 03:21:11;;;;;;;2.30;1.70;;;10.10;99.90;;;;;;4987937;28;20058;-71
2024/03/21 03:23:37;;;;;;;2.10;1.58;;;10.10;1.00;;;;;;4987740;28;20145;-71
2024/03/21 03:26:03;;;;;;;1.20;1.10;;;10.00;1.00;;;;;;4988194;28;20061;-71
2024/03/21 03:28:29;;;;;;;1.40;1.10;;;10.00;1.00;;;;;;4993030;28;20061;-71
2024/03/21 03:30:55;;;;;;;1.40;1.20;;;9.90;1.00;;;;;;5008022;28;20046;-71
2024/03/21 03:36:05;;;;;;;1.70;1.38;;;9.90;1.00;;;;;;4988250;28;20058;-71
2024/03/21 03:38:31;;;;;;;1.42;1.23;;;9.80;1.00;;;;;;4987798;28;20137;-71
2024/03/21 03:40:57;;;;;;;2.40;1.77;;;9.70;2.60;;;;;;4987875;28;20054;-71
2024/03/21 03:43:22;;;;;;;1.50;1.20;;;9.60;53.50;;;;;;4987740;28;20050;-71
2024/03/21 03:45:48;;;;;;;1.55;1.25;;;9.60;99.90;;;;;;4987698;28;20165;-71
2024/03/21 03:48:14;;;;;;;1.20;1.05;;;9.50;99.90;;;;;;4985187;28;20061;-71
2024/03/21 03:50:40;;;;;;;1.33;1.00;;;9.60;99.90;;;;;;4983102;28;20073;-71
2024/03/21 03:53:06;;;;;;;0.98;0.85;;;9.60;99.90;;;;;;4997029;28;20060;-71
2024/03/21 03:55:31;;;;;;;1.48;1.10;;;9.50;99.90;;;;;;4987542;28;20058;-71
2024/03/21 03:57:57;;;;;;;1.70;1.15;;;9.50;99.90;;;;;;4987944;28;20050;-71
2024/03/21 04:00:23;;;;;;;1.17;1.08;;;9.40;99.90;;;;;;4987992;28;20050;-71
2024/03/21 04:02:49;;;;;;;1.75;1.10;;;9.40;99.90;;;;;;4987428;28;20058;-71
2024/03/21 04:05:17;;;;;;;1.27;0.90;;;9.40;99.90;;;;;;4988012;28;20043;-71
2024/03/21 04:07:44;;;;;;;0.57;0.50;;;9.30;99.90;;;;;;4986758;28;20062;-70
2024/03/21 04:10:10;;;;;;;0.88;0.73;;;9.40;99.90;;;;;;4971381;28;20573;-71
2024/03/21 04:12:36;;;;;;;1.63;1.10;;;9.40;99.90;;;;;;4987416;28;20604;-70
2024/03/21 04:15:03;;;;;;;1.05;0.82;;;9.40;99.90;;;;;;4987750;28;20050;-70
2024/03/21 04:17:29;;;;;;;1.17;0.73;;;9.30;99.90;;;;;;4987489;28;20058;-70
2024/03/21 04:19:54;;;;;;;0.95;0.80;;;9.30;99.90;;;;;;4971099;28;20054;-70
2024/03/21 04:22:20;;;;;;;1.25;0.85;;;9.30;99.90;;;;;;4986612;28;20110;-71
2024/03/21 04:24:47;;;;;;;1.10;0.70;;;9.30;99.90;;;;;;4986314;28;20066;-71
2024/03/21 04:27:13;;;;;;;0.75;0.60;;;9.30;99.90;;;;;;4987603;28;20050;-71
2024/03/21 04:29:38;;;;;;;1.20;0.85;;;9.30;99.90;;;;;;4986921;28;20177;-71
2024/03/21 04:32:05;;;;;;;0.63;0.63;;;9.30;99.90;;;;;;4987289;28;20113;-71
2024/03/21 04:34:31;;;;;;;1.30;0.90;;;9.20;99.90;;;;;;4971010;28;20046;-71
2024/03/21 04:36:56;;;;;;;0.63;0.63;;;9.20;99.90;;;;;;4987039;28;20140;-70
2024/03/21 04:39:22;;;;;;;1.00;0.80;;;9.10;99.90;;;;;;4986636;28;20514;-71
2024/03/21 04:41:48;;;;;;;1.02;0.70;;;9.10;99.90;;;;;;4987005;28;20054;-71
2024/03/21 04:44:14;;;;;;;0.82;0.73;;;9.00;99.90;;;;;;4986399;28;20054;-71
2024/03/21 04:46:40;;;;;;;1.33;1.02;;;9.00;99.90;;;;;;4986794;28;20060;-71
2024/03/21 04:49:05;;;;;;;0.77;0.65;;;8.90;99.90;;;;;;4970702;28;20061;-71
2024/03/21 04:51:31;;;;;;;0.88;0.70;;;8.90;99.90;;;;;;4986461;28;20057;-70
2024/03/21 04:53:57;;;;;;;1.00;0.80;;;8.80;99.90;;;;;;4986198;28;20054;-70
2024/03/21 04:56:23;;;;;;;1.23;1.13;;;8.80;99.90;;;;;;4985641;28;20054;-71
2024/03/21 04:58:51;;;;;;;1.15;0.80;;;8.80;99.90;;;;;;4986541;28;20050;-70
2024/03/21 05:01:17;;;;;;;0.80;0.63;;;8.80;99.90;;;;;;4986626;28;20058;-70
2024/03/21 05:03:43;;;;;;;1.25;0.90;;;8.80;99.90;;;;;;5002323;28;20405;-70
2024/03/21 05:06:09;;;;;;;0.70;0.68;;;8.80;99.90;;;;;;5004035;28;20065;-71
2024/03/21 05:08:34;;;;;;;0.90;0.70;;;8.80;99.90;;;;;;5004504;28;20494;-71
2024/03/21 05:11:00;;;;;;;1.45;1.00;;;8.80;99.90;;;;;;4991699;28;20489;-71
2024/03/21 05:13:26;;;;;;;1.60;1.10;;;8.80;99.90;;;;;;4995656;28;20117;-71
2024/03/21 05:15:52;;;;;;;1.17;0.98;;;8.80;99.90;;;;;;4986587;28;20055;-71
2024/03/21 05:18:18;;;;;;;1.40;1.10;;;8.80;99.90;;;;;;4976404;28;20050;-71
2024/03/21 05:20:44;;;;;;;0.63;0.60;;;8.80;99.90;;;;;;5006259;28;20486;-71
2024/03/21 05:23:10;;;;;;;1.00;0.90;;;8.80;99.90;;;;;;4999507;28;20109;-83
2024/03/21 05:25:36;;;;;;;1.20;0.88;;;8.80;99.90;;;;;;4990153;28;20073;-82
2024/03/21 05:28:05;;;;;;;0.75;0.68;;;8.80;99.90;;;;;;4974212;28;20057;-82
2024/03/21 05:30:32;;;;;;;1.25;0.85;;;8.80;99.90;;;;;;4974039;28;20460;-82
2024/03/21 05:32:58;;;;;;;1.40;1.05;;;8.80;99.90;;;;;;4969607;28;20157;-83
2024/03/21 05:35:23;;;;;;;0.75;0.65;;;8.80;99.90;;;;;;4970347;28;20580;-82
2024/03/21 05:37:50;;;;;;;1.25;0.93;;;8.70;99.90;;;;;;4969208;28;20050;-83
2024/03/21 05:40:15;;;;;;;1.63;1.17;;;8.70;99.90;;;;;;4954279;28;20137;-82
2024/03/21 05:42:44;;;;;;;1.00;0.77;;;8.70;1.00;;;;;;4970479;28;20054;-82
2024/03/21 05:45:10;;;;;;;1.00;0.80;;;8.70;1.00;;;;;;4966324;28;20073;-82
2024/03/21 05:47:38;;;;;;;1.55;0.98;;;8.70;1.00;;;;;;4971217;28;20101;-84
2024/03/21 05:50:07;;;;;;;1.38;1.00;;;8.70;1.00;;;;;;5001836;28;20058;-83
2024/03/21 05:52:33;;;;;;;1.67;0.90;;;8.70;1.00;;;;;;4991803;28;20057;-85
2024/03/21 05:54:59;;;;;;;1.08;0.90;;;8.70;1.00;;;;;;4983181;28;20054;-84
2024/03/21 05:57:25;;;;;;;1.48;1.10;;;8.80;1.00;;;;;;4973358;28;20050;-83
2024/03/21 05:59:54;;;;;;;2.00;1.40;;;8.80;1.00;;;;;;4971341;28;20054;-84
2024/03/21 06:02:21;;;;;;;1.60;1.20;;;8.80;1.00;;;;;;4967673;28;20720;-84
2024/03/21 06:04:48;;;;;;;1.15;0.88;;;8.80;1.00;;;;;;4954593;28;20057;-85
2024/03/21 06:07:22;;;;;;;1.55;1.25;;;8.80;1.00;;;;;;4975655;28;20042;-86
2024/03/21 06:09:51;;;;;;;1.50;1.02;;;8.90;8.10;;;;;;5000544;28;20078;-85
2024/03/21 06:12:17;;;;;;;1.70;1.33;;;8.90;1.00;;;;;;4976413;28;20057;-84
2024/03/21 06:14:44;;;;;;;2.33;1.67;;;8.90;1.00;;;;;;4972024;28;20093;-88
2024/03/21 06:17:12;;;;;;;1.83;1.40;;;8.90;90.50;;;;;;4975186;28;20041;-89
2024/03/21 06:19:39;;;;;;;2.28;1.65;;;8.90;31.60;;;;;;4974292;28;20105;-87
2024/03/21 06:22:05;;;;;;;1.60;1.42;;;8.80;23.50;;;;;;5000191;28;20171;-86
2024/03/21 06:24:31;;;;;;;2.28;1.70;;;8.90;48.90;;;;;;4966141;28;20090;-83
2024/03/21 06:26:57;;;;;;;2.22;1.63;;;8.90;58.80;;;;;;4951762;28;20054;-84
2024/03/21 06:29:27;;;;;;;2.35;1.67;;;8.90;82.40;;;;;;4985155;28;20611;-84
2024/03/21 06:31:54;;;;;;;2.28;1.70;;;8.90;96.10;;;;;;4955089;28;20054;-85
2024/03/21 06:34:21;;;;;;;2.88;1.85;;;9.00;92.80;;;;;;4972881;28;20061;-85
2024/03/21 06:36:47;;;;;;;2.28;1.70;;;9.00;78.20;;;;;;5003087;28;20057;-83
2024/03/21 06:39:13;;;;;;;2.22;1.73;;;9.00;1.00;;;;;;5001902;28;20069;-83
2024/03/21 06:41:43;;;;;;;2.78;1.88;;;9.00;1.00;;;;;;4954781;28;20076;-82
2024/03/21 06:44:11;;;;;;;2.30;1.55;;;9.10;1.60;;;;;;4968036;28;20551;-83
2024/03/21 06:46:38;;;;;;;2.05;1.70;;;9.10;1.00;;;;;;4984055;28;20455;-84
2024/03/21 06:49:05;;;;;;;1.88;1.48;;;9.10;1.00;;;;;;4983973;28;20149;-83
2024/03/21 06:51:31;;;;;;;1.98;1.42;;;9.20;1.00;;;;;;4983449;28;20128;-82
2024/03/21 06:53:58;;;;;;;1.90;1.52;;;9.30;1.00;;;;;;4975711;28;20066;-82
2024/03/21 06:56:23;;;;;;;1.80;1.40;;;9.30;1.00;;;;;;4946294;28;20544;-82
2024/03/21 06:58:49;;;;;;;2.40;1.70;;;9.40;1.00;;;;;;4964976;28;20061;-83
2024/03/21 07:01:18;;;;;;;2.20;1.52;;;9.40;1.00;;;;;;4963189;28;20062;-82
2024/03/21 07:03:44;;;;;;;2.30;1.63;;;9.50;1.00;;;;;;4978880;28;20058;-81
2024/03/21 07:06:10;;;;;;;2.72;1.90;;;9.50;99.90;;;;;;4965625;28;20061;-82
2024/03/21 07:08:36;;;;;;;2.50;1.95;;;9.50;99.90;;;;;;4982104;28;20050;-82
2024/03/21 07:11:04;;;;;;;1.73;1.30;;;9.50;99.90;;;;;;4999624;28;20045;-82
2024/03/21 07:13:30;;;;;;;2.00;1.52;;;9.60;99.90;;;;;;4970741;28;20054;-82
2024/03/21 07:15:57;;;;;;;2.00;1.60;;;9.70;99.90;;;;;;4980604;28;20061;-80
2024/03/21 07:18:23;;;;;;;2.38;2.00;;;9.70;99.90;;;;;;4982543;28;20061;-81
2024/03/21 07:20:56;;;;;;;1.70;1.45;;;9.80;99.90;;;;;;4999362;28;20390;-81
2024/03/21 07:23:22;;;;;;;2.35;1.80;;;9.80;99.90;;;;;;4985927;28;20046;-80
2024/03/21 07:25:48;;;;;;;2.00;1.60;;;9.90;74.30;;;;;;4932105;28;20109;-80
2024/03/21 07:28:14;;;;;;;2.42;1.67;;;9.90;9.50;;;;;;4964141;28;20128;-81
2024/03/21 07:30:40;;;;;;;2.10;1.67;;;9.90;1.00;;;;;;4963689;28;20093;-80
2024/03/21 07:33:06;;;;;;;2.13;1.83;;;10.00;1.00;;;;;;4979550;28;20062;-81
2024/03/21 07:35:33;;;;;;;2.50;1.95;;;10.00;1.00;;;;;;4964127;28;20050;-81
2024/03/21 07:37:59;;;;;;;2.13;1.63;;;10.00;1.00;;;;;;4963369;28;20089;-81
2024/03/21 07:40:25;;;;;;;2.03;1.77;;;10.00;1.00;;;;;;4948383;28;20566;-81
2024/03/21 07:42:51;;;;;;;1.95;1.60;;;10.10;1.00;;;;;;4963563;28;20548;-80
2024/03/21 07:45:17;;;;;;;2.15;1.70;;;10.20;99.90;;;;;;4948025;28;20053;-80
2024/03/21 07:47:44;;;;;;;2.55;2.05;;;10.30;99.90;;;;;;4979915;28;20054;-81
2024/03/21 07:50:10;;;;;;;1.80;1.40;;;10.30;99.90;;;;;;4979743;28;20045;-80
2024/03/21 07:52:36;;;;;;;2.00;1.52;;;10.40;99.90;;;;;;4983956;28;20140;-80
2024/03/21 07:55:01;;;;;;;1.80;1.58;;;10.50;99.90;;;;;;4947436;28;20089;-81
2024/03/21 07:57:27;;;;;;;1.52;1.15;;;10.50;99.90;;;;;;4963397;28;20647;-81
2024/03/21 07:59:53;;;;;;;1.80;1.48;;;10.50;99.90;;;;;;4980182;28;20054;-81
2024/03/21 08:02:19;;;;;;;1.50;1.30;;;10.60;99.90;;;;;;4963677;28;20120;-80
2024/03/21 08:04:45;;;;;;;1.63;1.40;;;10.70;99.90;;;;;;4979034;28;20485;-81
2024/03/21 08:07:11;;;;;;;2.08;1.70;;;10.80;99.90;;;;;;4946757;28;20124;-80
2024/03/21 08:09:37;;;;;;;1.38;1.27;;;10.90;99.90;;;;;;4979449;28;20059;-81
2024/03/21 08:12:03;;;;;;;1.48;1.25;;;11.00;99.90;;;;;;4978847;28;20065;-81
2024/03/21 08:14:29;;;;;;;1.85;1.35;;;11.00;99.90;;;;;;4963512;28;20058;-81
2024/03/21 08:16:55;;;;;;;1.67;1.30;;;11.10;99.90;;;;;;4962747;28;20421;-81
2024/03/21 08:19:21;;;;;;;1.38;1.17;;;11.00;99.90;;;;;;4947155;28;20132;-81
2024/03/21 08:21:47;;;;;;;1.50;1.30;;;11.00;99.90;;;;;;4978888;28;20058;-81
2024/03/21 08:24:13;;;;;;;1.35;1.10;;;11.00;99.90;;;;;;4962632;28;20093;-80
2024/03/21 08:26:39;;;;;;;1.40;1.30;;;11.00;99.90;;;;;;4978277;28;20101;-81
2024/03/21 08:29:05;;;;;;;2.10;1.70;;;11.00;99.90;;;;;;4978698;28;20128;-81
2024/03/21 08:31:31;;;;;;;1.40;1.00;;;11.10;99.90;;;;;;4962426;28;20080;-81
2024/03/21 08:33:57;;;;;;;1.55;1.27;;;11.10;99.90;;;;;;4962732;28;20069;-81
2024/03/21 08:36:23;;;;;;;1.50;1.17;;;11.10;99.90;;;;;;4946169;28;20050;-81
2024/03/21 08:38:50;;;;;;;2.03;1.60;;;11.20;99.90;;;;;;4962828;28;20116;-81
2024/03/21 08:41:17;;;;;;;2.08;1.60;;;11.30;99.90;;;;;;4962381;28;20506;-81
2024/03/21 08:43:43;;;;;;;1.60;1.48;;;11.40;99.90;;;;;;4978691;28;20124;-81
2024/03/21 08:46:09;;;;;;;1.70;1.25;;;11.50;99.90;;;;;;4978773;28;20057;-80
2024/03/21 08:48:35;;;;;;;2.08;1.55;;;11.50;99.90;;;;;;4962878;28;20058;-81
2024/03/21 08:51:01;;;;;;;2.05;1.75;;;11.60;99.90;;;;;;4946776;28;20061;-80
2024/03/21 08:53:27;;;;;;;1.83;1.52;;;11.70;99.90;;;;;;4961164;28;20484;-81
2024/03/21 08:55:52;;;;;;;2.10;1.60;;;11.70;99.90;;;;;;4978656;28;20721;-81
2024/03/21 08:58:19;;;;;;;1.50;1.17;;;11.80;98.50;;;;;;4962921;28;20057;-81
2024/03/21 09:00:46;;;;;;;1.73;1.48;;;11.80;93.80;;;;;;4978717;28;20074;-81
2024/03/21 09:03:12;;;;;;;1.83;1.50;;;11.90;95.10;;;;;;4970780;28;20050;-81
2024/03/21 09:05:38;;;;;;;1.58;1.30;;;11.90;96.90;;;;;;4981535;28;20123;-81
2024/03/21 09:08:04;;;;;;;2.03;1.40;;;12.00;94.40;;;;;;4976407;28;20065;-82
2024/03/21 09:10:30;;;;;;;2.00;1.40;;;12.10;95.60;;;;;;4989389;28;20046;-81
2024/03/21 09:12:56;;;;;;;1.70;1.35;;;12.20;88.00;;;;;;4976125;28;20073;-81
2024/03/21 09:15:22;;;;;;;1.70;1.52;;;12.30;88.70;;;;;;4943737;28;20081;-72
2024/03/21 09:17:48;;;;;;;2.47;1.02;;;12.40;89.30;;;;;;4997741;28;20211;-72
2024/03/21 09:20:13;;;;;;;1.45;1.20;;;12.50;89.70;;;;;;4980362;28;20057;-73
2024/03/21 09:22:39;;;;;;;1.75;1.42;;;12.60;82.60;;;;;;4994198;28;20054;-71
2024/03/21 09:25:05;;;;;;;1.65;1.30;;;12.70;88.00;;;;;;4995623;28;20394;-71
2024/03/21 09:27:31;;;;;;;1.50;1.23;;;12.80;76.60;;;;;;4996571;28;20057;-72
2024/03/21 09:29:57;;;;;;;1.00;0.90;;;12.90;76.40;;;;;;4995859;28;20145;-72
2024/03/21 09:32:23;;;;;;;1.50;1.25;;;13.00;71.40;;;;;;4980362;28;20065;-72
2024/03/21 09:34:51;;;;;;;1.75;1.45;;;13.20;65.20;;;;;;4996519;28;20061;-71
2024/03/21 09:37:17;;;;;;;1.83;1.35;;;13.30;71.10;;;;;;4956392;28;20053;-72
2024/03/21 09:39:43;;;;;;;1.80;1.27;;;13.40;54.50;;;;;;4963471;28;20050;-72
2024/03/21 09:42:15;;;;;;;1.75;1.35;;;13.60;62.90;;;;;;4979868;28;20058;-72
2024/03/21 09:44:42;;;;;;;1.80;1.25;;;13.70;63.40;;;;;;4976174;28;20057;-72
2024/03/21 09:47:08;;;;;;;2.00;1.60;;;13.80;63.90;;;;;;4964960;28;20042;-72
2024/03/21 09:49:34;;;;;;;1.33;1.05;;;13.80;35.70;;;;;;4981017;28;20217;-72
2024/03/21 09:52:00;;;;;;;1.63;1.33;;;13.80;21.80;;;;;;4979493;28;20163;-72
2024/03/21 09:54:26;;;;;;;1.52;1.00;;;13.80;14.80;;;;;;4974914;28;20108;-72
2024/03/21 09:56:53;;;;;;;1.85;1.40;;;13.80;7.10;;;;;;4994341;28;20054;-72
2024/03/21 09:59:19;;;;;;;1.60;1.20;;;13.80;9.70;;;;;;4993040;28;20053;-72
2024/03/21 10:01:46;;;;;;;1.40;1.17;;;13.80;8.60;;;;;;4963885;28;20056;-72
2024/03/21 10:04:12;;;;;;;1.63;1.25;;;13.90;12.20;;;;;;4981168;28;20466;-72
2024/03/21 10:06:45;;;;;;;1.88;1.13;;;14.00;4.00;;;;;;4978922;28;20050;-73
2024/03/21 10:09:11;;;;;;;1.55;1.25;;;14.10;6.80;;;;;;4963501;28;20104;-72
2024/03/21 10:11:37;;;;;;;1.08;0.90;;;14.20;1.00;;;;;;4979879;28;20142;-73
2024/03/21 10:14:03;;;;;;;1.27;1.05;;;14.40;2.90;;;;;;4982081;28;20046;-73
2024/03/21 10:16:29;;;;;;;1.40;1.20;;;14.50;1.90;;;;;;4967117;28;20086;-73
2024/03/21 10:18:55;;;;;;;1.42;1.10;;;14.70;4.10;;;;;;4983357;28;20047;-72
2024/03/21 10:21:24;;;;;;;1.45;1.27;;;14.80;11.80;;;;;;4982425;28;20116;-73
2024/03/21 10:24:00;;;;;;;1.30;0.98;;;14.90;1.00;;;;;;4979177;28;20124;-73
2024/03/21 10:26:26;;;;;;;3.05;1.30;;;14.90;1.00;;;;;;4963762;28;20069;-73
2024/03/21 10:28:52;;;;;;;1.55;1.20;;;14.90;1.00;;;;;;4980369;28;20133;-72
2024/03/21 10:31:20;;;;;;;1.83;1.50;;;14.90;9.40;;;;;;4982670;28;20203;-72
2024/03/21 10:33:46;;;;;;;2.05;1.70;;;14.90;1.00;;;;;;4981899;28;20081;-73
2024/03/21 10:36:13;;;;;;;1.58;1.30;;;15.10;5.70;;;;;;4950419;28;20051;-72
2024/03/21 10:38:39;;;;;;;1.52;1.27;;;15.10;1.30;;;;;;4950147;28;20116;-71
2024/03/21 10:41:25;;;;;;;1.85;1.33;;;15.20;1.00;;;;;;4950831;28;20056;-71
2024/03/21 10:43:56;;;;;;;1.48;1.35;;;15.30;9.40;;;;;;4982034;28;20054;-72
2024/03/21 10:46:27;;;;;;;2.00;1.55;;;15.50;8.40;;;;;;4982218;28;20479;-71
2024/03/21 10:48:53;;;;;;;1.58;1.30;;;15.60;3.50;;;;;;4982559;28;20059;-71
2024/03/21 10:51:20;;;;;;;2.17;1.55;;;15.60;7.90;;;;;;4982230;28;20066;-72
2024/03/21 10:53:57;;;;;;;2.00;1.60;;;15.60;5.20;;;;;;4949447;28;20058;-72
2024/03/21 10:56:27;;;;;;;1.88;1.60;;;15.60;1.00;;;;;;4986173;28;20076;-73
2024/03/21 10:58:57;;;;;;;1.83;1.55;;;15.60;4.30;;;;;;4986764;28;20128;-72
2024/03/21 11:01:34;;;;;;;2.20;1.80;;;15.60;4.00;;;;;;4969789;28;20061;-72
2024/03/21 11:04:07;;;;;;;2.35;1.85;;;15.60;8.70;;;;;;4969750;28;20046;-73
2024/03/21 11:06:34;;;;;;;1.90;1.50;;;15.60;11.60;;;;;;4985824;28;20062;-71
2024/03/21 11:09:00;;;;;;;2.08;1.60;;;15.80;5.70;;;;;;4985732;28;20062;-72
2024/03/21 11:11:26;;;;;;;1.80;1.50;;;16.10;7.40;;;;;;4937847;28;20061;-71
2024/03/21 11:13:53;;;;;;;2.00;1.40;;;16.30;4.50;;;;;;4969702;28;20509;-72
2024/03/21 11:16:19;;;;;;;1.92;1.60;;;16.40;5.00;;;;;;4985616;28;20391;-71
2024/03/21 11:18:46;;;;;;;2.15;1.60;;;16.60;6.70;;;;;;4953419;28;20129;-72
2024/03/21 11:21:13;;;;;;;1.90;1.30;;;16.80;2.00;;;;;;4969158;28;20538;-72
2024/03/21 11:23:39;;;;;;;1.83;1.50;;;16.90;4.60;;;;;;4967957;28;20464;-72
2024/03/21 11:26:07;;;;;;;2.33;1.80;;;16.90;1.00;;;;;;4966456;28;20081;-71
2024/03/21 11:28:34;;;;;;;3.00;2.22;;;16.90;1.00;;;;;;4966306;28;20054;-72
2024/03/21 11:31:02;;;;;;;2.08;1.58;;;16.80;1.10;;;;;;4966342;28;20078;-72
2024/03/21 11:33:29;;;;;;;2.13;1.60;;;17.10;2.10;;;;;;4965411;28;20047;-72
2024/03/21 11:35:56;;;;;;;2.20;1.60;;;17.20;1.00;;;;;;4982385;28;20087;-72
2024/03/21 11:38:22;;;;;;;1.40;1.15;;;17.40;1.00;;;;;;4981555;28;20058;-72
2024/03/21 11:40:48;;;;;;;1.40;1.15;;;17.50;1.00;;;;;;4981795;28;20061;-73
2024/03/21 11:43:14;;;;;;;2.42;1.77;;;17.60;1.00;;;;;;4949903;28;20069;-73
2024/03/21 11:45:40;;;;;;;2.35;1.80;;;17.60;1.00;;;;;;4967918;28;20059;-73
2024/03/21 11:48:12;;;;;;;1.80;1.58;;;17.60;1.00;;;;;;5001242;28;20440;-72
2024/03/21 11:50:38;;;;;;;2.25;1.80;;;17.60;1.00;;;;;;4963675;28;20061;-73
2024/03/21 11:53:04;;;;;;;2.03;1.63;;;17.50;1.00;;;;;;4994550;28;20054;-72
2024/03/21 11:55:30;;;;;;;2.50;1.90;;;17.60;1.00;;;;;;4964264;28;20060;-72
2024/03/21 11:57:56;;;;;;;2.22;1.85;;;17.50;1.00;;;;;;4981214;28;20054;-72
2024/03/21 12:00:22;;;;;;;3.00;2.17;;;17.50;1.00;;;;;;4981622;28;20042;-72
2024/03/21 12:02:51;;;;;;;2.25;1.60;;;17.50;1.00;;;;;;4949792;28;20065;-72
2024/03/21 12:05:18;;;;;;;2.28;1.67;;;17.50;1.00;;;;;;4969741;28;20050;-71
2024/03/21 12:07:44;;;;;;;2.20;1.70;;;17.40;1.00;;;;;;4964557;28;20116;-72
2024/03/21 12:10:10;;;;;;;2.40;1.85;;;17.40;1.00;;;;;;4980663;28;20065;-72
2024/03/21 12:12:36;;;;;;;1.75;1.48;;;17.30;1.00;;;;;;4965405;28;20628;-72
2024/03/21 12:15:04;;;;;;;2.10;1.63;;;17.40;1.00;;;;;;4949380;28;20060;-72
2024/03/21 12:17:33;;;;;;;2.28;1.55;;;17.50;1.00;;;;;;4982046;28;20054;-72
2024/03/21 12:19:59;;;;;;;2.33;2.00;;;17.50;1.00;;;;;;4997408;28;20084;-73
2024/03/21 12:22:26;;;;;;;2.80;2.17;;;17.40;1.00;;;;;;4965748;28;20064;-72
2024/03/21 12:24:52;;;;;;;3.25;2.03;;;17.30;1.00;;;;;;4945498;28;20054;-71
2024/03/21 12:27:18;;;;;;;3.50;2.45;;;17.20;1.00;;;;;;4966193;28;20057;-72
2024/03/21 12:29:46;;;;;;;1.98;1.60;;;17.10;1.00;;;;;;4981720;28;20053;-72
2024/03/21 12:32:13;;;;;;;2.45;1.70;;;17.00;1.00;;;;;;4981096;28;20599;-72
2024/03/21 12:34:38;;;;;;;3.30;2.63;;;17.10;1.00;;;;;;4996747;28;20064;-71
2024/03/21 12:37:06;;;;;;;3.60;2.67;;;16.90;1.00;;;;;;4982066;28;20050;-71
2024/03/21 12:39:33;;;;;;;4.07;3.22;;;16.80;1.00;;;;;;4980533;28;20069;-72
2024/03/21 12:41:59;;;;;;;3.45;2.50;;;16.60;1.00;;;;;;4998043;28;20074;-71
2024/03/21 12:44:25;;;;;;;3.25;2.78;;;16.50;1.00;;;;;;4980097;28;20068;-71
2024/03/21 12:46:51;;;;;;;3.00;2.50;;;16.40;1.00;;;;;;4981242;28;20053;-71
2024/03/21 12:49:17;;;;;;;2.80;2.42;;;16.40;3.30;;;;;;4980750;28;20111;-72
2024/03/21 12:51:42;;;;;;;2.72;2.30;;;16.50;1.00;;;;;;4980966;28;20065;-72